Lulworth, United Kingdom
Current Conditions -  °F | °C
As of 10:50 PM on Tuesday 21 Oct 2014 (Local Time) from EGHH Reporting Station
Clear Clear  
Wind Chill: 43°   Ceiling: Unl
Heat Index: 48°   Visibility: 6mi
Dew Point: 39°   Wind: 13mph
Humidity: 71%   Direction: 310°NW
Pressure: 30.18"   Gusts: NA
Location:  50.62°N, 2.17°W
Report Text: EGHH 212150Z 31011KT CAVOK 09/04 Q1022
Loading
Personal Weather Stations






























Interactive Weather Map
Tropical Storm Tracking
New forecast layout! Learn more

10-Day Weather Forecast

Advertisements
Track Severe Weather on mobile